sensor_id;sensor_type;location;lat;lon;timestamp;pressure;altitude;pressure_sealevel;temperature;humidity
58018;BME280;43810;50.860;19.226;2024-03-08T00:00:20;99281.31;;;-3.46;100.00
58018;BME280;43810;50.860;19.226;2024-03-08T00:03:05;99267.88;;;-3.43;100.00
58018;BME280;43810;50.860;19.226;2024-03-08T00:05:31;99274.88;;;-3.43;100.00
58018;BME280;43810;50.860;19.226;2024-03-08T00:07:57;99276.91;;;-3.45;100.00
58018;BME280;43810;50.860;19.226;2024-03-08T00:10:23;99280.94;;;-3.49;100.00
58018;BME280;43810;50.860;19.226;2024-03-08T00:12:49;99269.44;;;-3.53;100.00
58018;BME280;43810;50.860;19.226;2024-03-08T00:15:17;99277.88;;;-3.58;100.00
58018;BME280;43810;50.860;19.226;2024-03-08T00:17:43;99267.91;;;-3.61;100.00
58018;BME280;43810;50.860;19.226;2024-03-08T00:20:10;99264.88;;;-3.58;100.00
58018;BME280;43810;50.860;19.226;2024-03-08T00:22:39;99274.69;;;-3.60;100.00
58018;BME280;43810;50.860;19.226;2024-03-08T00:25:06;99265.56;;;-3.62;100.00
58018;BME280;43810;50.860;19.226;2024-03-08T00:27:36;99273.34;;;-3.62;100.00
58018;BME280;43810;50.860;19.226;2024-03-08T00:30:02;99278.81;;;-3.70;100.00
58018;BME280;43810;50.860;19.226;2024-03-08T00:32:28;99278.31;;;-3.79;100.00
58018;BME280;43810;50.860;19.226;2024-03-08T00:34:54;99271.19;;;-3.84;100.00
58018;BME280;43810;50.860;19.226;2024-03-08T00:37:20;99267.03;;;-3.85;100.00
58018;BME280;43810;50.860;19.226;2024-03-08T00:39:51;99272.22;;;-3.85;100.00
58018;BME280;43810;50.860;19.226;2024-03-08T00:42:17;99270.06;;;-3.88;100.00
58018;BME280;43810;50.860;19.226;2024-03-08T00:44:43;99275.50;;;-3.96;100.00
58018;BME280;43810;50.860;19.226;2024-03-08T00:47:09;99268.19;;;-3.99;100.00
58018;BME280;43810;50.860;19.226;2024-03-08T00:49:35;99260.81;;;-4.02;100.00
58018;BME280;43810;50.860;19.226;2024-03-08T00:52:02;99267.03;;;-4.03;100.00
58018;BME280;43810;50.860;19.226;2024-03-08T00:54:28;99268.41;;;-4.00;100.00
58018;BME280;43810;50.860;19.226;2024-03-08T00:56:53;99260.81;;;-4.02;100.00
58018;BME280;43810;50.860;19.226;2024-03-08T00:59:19;99270.03;;;-4.06;100.00
58018;BME280;43810;50.860;19.226;2024-03-08T01:01:45;99269.69;;;-4.09;100.00
58018;BME280;43810;50.860;19.226;2024-03-08T01:04:11;99261.38;;;-4.18;100.00
58018;BME280;43810;50.860;19.226;2024-03-08T01:06:36;99263.69;;;-4.28;100.00
58018;BME280;43810;50.860;19.226;2024-03-08T01:09:02;99258.06;;;-4.25;100.00
58018;BME280;43810;50.860;19.226;2024-03-08T01:11:28;99269.75;;;-4.34;100.00
58018;BME280;43810;50.860;19.226;2024-03-08T01:13:54;99263.25;;;-4.43;100.00
58018;BME280;43810;50.860;19.226;2024-03-08T01:16:20;99251.44;;;-4.39;100.00
58018;BME280;43810;50.860;19.226;2024-03-08T01:18:47;99250.81;;;-4.35;100.00
58018;BME280;43810;50.860;19.226;2024-03-08T01:21:12;99257.91;;;-4.30;100.00
58018;BME280;43810;50.860;19.226;2024-03-08T01:23:38;99249.94;;;-4.29;100.00
58018;BME280;43810;50.860;19.226;2024-03-08T01:26:04;99244.81;;;-4.35;100.00
58018;BME280;43810;50.860;19.226;2024-03-08T01:28:30;99245.53;;;-4.47;100.00
58018;BME280;43810;50.860;19.226;2024-03-08T01:30:56;99249.97;;;-4.54;100.00
58018;BME280;43810;50.860;19.226;2024-03-08T01:33:26;99245.22;;;-4.57;100.00
58018;BME280;43810;50.860;19.226;2024-03-08T01:35:52;99243.78;;;-4.53;100.00
58018;BME280;43810;50.860;19.226;2024-03-08T01:38:19;99244.78;;;-4.54;100.00
58018;BME280;43810;50.860;19.226;2024-03-08T01:40:49;99244.28;;;-4.62;100.00
58018;BME280;43810;50.860;19.226;2024-03-08T01:43:25;99232.66;;;-4.78;100.00
58018;BME280;43810;50.860;19.226;2024-03-08T01:45:52;99225.88;;;-4.79;100.00
58018;BME280;43810;50.860;19.226;2024-03-08T01:48:18;99225.13;;;-4.86;100.00
58018;BME280;43810;50.860;19.226;2024-03-08T01:50:47;99229.44;;;-4.98;100.00
58018;BME280;43810;50.860;19.226;2024-03-08T01:53:13;99217.78;;;-5.07;100.00
58018;BME280;43810;50.860;19.226;2024-03-08T01:55:40;99220.75;;;-5.04;100.00
58018;BME280;43810;50.860;19.226;2024-03-08T01:58:09;99225.28;;;-4.99;100.00
58018;BME280;43810;50.860;19.226;2024-03-08T02:00:36;99224.72;;;-5.01;100.00
58018;BME280;43810;50.860;19.226;2024-03-08T02:03:05;99224.13;;;-5.03;100.00
58018;BME280;43810;50.860;19.226;2024-03-08T02:05:31;99214.38;;;-5.08;100.00
58018;BME280;43810;50.860;19.226;2024-03-08T02:07:57;99214.66;;;-5.16;100.00
58018;BME280;43810;50.860;19.226;2024-03-08T02:10:23;99219.66;;;-5.21;100.00
58018;BME280;43810;50.860;19.226;2024-03-08T02:12:49;99207.94;;;-5.24;100.00
58018;BME280;43810;50.860;19.226;2024-03-08T02:15:14;99213.34;;;-5.25;100.00
58018;BME280;43810;50.860;19.226;2024-03-08T02:17:40;99207.56;;;-5.27;100.00
58018;BME280;43810;50.860;19.226;2024-03-08T02:20:07;99207.69;;;-5.15;100.00
58018;BME280;43810;50.860;19.226;2024-03-08T02:22:34;99206.78;;;-5.03;100.00
58018;BME280;43810;50.860;19.226;2024-03-08T02:25:02;99207.72;;;-4.97;100.00
58018;BME280;43810;50.860;19.226;2024-03-08T02:27:28;99210.06;;;-5.14;100.00
58018;BME280;43810;50.860;19.226;2024-03-08T02:29:58;99213.34;;;-5.25;100.00
58018;BME280;43810;50.860;19.226;2024-03-08T02:32:24;99207.66;;;-5.40;100.00
58018;BME280;43810;50.860;19.226;2024-03-08T02:34:50;99215.47;;;-5.47;100.00
58018;BME280;43810;50.860;19.226;2024-03-08T02:37:16;99206.53;;;-5.51;100.00
58018;BME280;43810;50.860;19.226;2024-03-08T02:39:43;99202.94;;;-5.50;100.00
58018;BME280;43810;50.860;19.226;2024-03-08T02:42:08;99206.94;;;-5.54;100.00
58018;BME280;43810;50.860;19.226;2024-03-08T02:44:34;99206.94;;;-5.54;100.00
58018;BME280;43810;50.860;19.226;2024-03-08T02:47:00;99217.47;;;-5.49;100.00
58018;BME280;43810;50.860;19.226;2024-03-08T02:49:26;99206.72;;;-5.52;100.00
58018;BME280;43810;50.860;19.226;2024-03-08T02:51:53;99209.06;;;-5.44;100.00
58018;BME280;43810;50.860;19.226;2024-03-08T02:54:19;99212.28;;;-5.49;100.00
58018;BME280;43810;50.860;19.226;2024-03-08T02:56:45;99204.41;;;-5.61;100.00
58018;BME280;43810;50.860;19.226;2024-03-08T02:59:15;99201.63;;;-5.66;100.00
58018;BME280;43810;50.860;19.226;2024-03-08T03:01:43;99208.66;;;-5.73;100.00
58018;BME280;43810;50.860;19.226;2024-03-08T03:04:09;99194.31;;;-5.75;100.00
58018;BME280;43810;50.860;19.226;2024-03-08T03:06:35;99202.47;;;-5.72;100.00
58018;BME280;43810;50.860;19.226;2024-03-08T03:09:01;99204.88;;;-5.77;100.00
58018;BME280;43810;50.860;19.226;2024-03-08T03:11:27;99199.09;;;-5.72;100.00
58018;BME280;43810;50.860;19.226;2024-03-08T03:13:53;99202.41;;;-5.65;100.00
58018;BME280;43810;50.860;19.226;2024-03-08T03:16:19;99210.78;;;-5.63;100.00
58018;BME280;43810;50.860;19.226;2024-03-08T03:18:46;99198.25;;;-5.66;100.00
58018;BME280;43810;50.860;19.226;2024-03-08T03:21:12;99199.09;;;-5.72;100.00
58018;BME280;43810;50.860;19.226;2024-03-08T03:23:41;99196.13;;;-5.76;100.00
58018;BME280;43810;50.860;19.226;2024-03-08T03:26:10;99202.13;;;-5.82;100.00
58018;BME280;43810;50.860;19.226;2024-03-08T03:28:39;99208.72;;;-5.86;100.00
58018;BME280;43810;50.860;19.226;2024-03-08T03:31:06;99207.50;;;-5.83;100.00
58018;BME280;43810;50.860;19.226;2024-03-08T03:33:32;99203.75;;;-5.87;100.00
58018;BME280;43810;50.860;19.226;2024-03-08T03:36:00;99202.34;;;-5.90;100.00
58018;BME280;43810;50.860;19.226;2024-03-08T03:38:26;99205.72;;;-5.89;100.00
58018;BME280;43810;50.860;19.226;2024-03-08T03:40:53;99201.75;;;-5.85;100.00
58018;BME280;43810;50.860;19.226;2024-03-08T03:43:23;99209.91;;;-5.82;100.00
58018;BME280;43810;50.860;19.226;2024-03-08T03:45:49;99210.50;;;-5.86;100.00
58018;BME280;43810;50.860;19.226;2024-03-08T03:48:14;99200.75;;;-5.91;100.00
58018;BME280;43810;50.860;19.226;2024-03-08T03:50:40;99212.25;;;-5.80;100.00
58018;BME280;43810;50.860;19.226;2024-03-08T03:53:06;99210.81;;;-5.70;100.00
58018;BME280;43810;50.860;19.226;2024-03-08T03:55:35;99206.44;;;-5.69;100.00
58018;BME280;43810;50.860;19.226;2024-03-08T03:58:03;99212.84;;;-5.78;100.00
58018;BME280;43810;50.860;19.226;2024-03-08T04:00:29;99201.56;;;-5.90;100.00
58018;BME280;43810;50.860;19.226;2024-03-08T04:02:55;99205.59;;;-6.01;100.00
58018;BME280;43810;50.860;19.226;2024-03-08T04:05:24;99206.41;;;-6.07;100.00
58018;BME280;43810;50.860;19.226;2024-03-08T04:07:50;99206.22;;;-6.06;100.00
58018;BME280;43810;50.860;19.226;2024-03-08T04:10:16;99212.56;;;-6.02;100.00
58018;BME280;43810;50.860;19.226;2024-03-08T04:12:41;99199.22;;;-5.99;100.00
58018;BME280;43810;50.860;19.226;2024-03-08T04:15:08;99207.38;;;-6.02;100.00
58018;BME280;43810;50.860;19.226;2024-03-08T04:17:36;99196.22;;;-6.02;100.00
58018;BME280;43810;50.860;19.226;2024-03-08T04:20:03;99206.38;;;-6.01;100.00
58018;BME280;43810;50.860;19.226;2024-03-08T04:22:37;99210.97;;;-6.03;100.00
58018;BME280;43810;50.860;19.226;2024-03-08T04:25:04;99203.19;;;-6.03;100.00
58018;BME280;43810;50.860;19.226;2024-03-08T04:27:29;99200.47;;;-6.08;100.00
58018;BME280;43810;50.860;19.226;2024-03-08T04:29:55;99207.03;;;-6.12;100.00
58018;BME280;43810;50.860;19.226;2024-03-08T04:32:22;99207.44;;;-6.15;100.00
58018;BME280;43810;50.860;19.226;2024-03-08T04:34:48;99210.25;;;-6.16;100.00
58018;BME280;43810;50.860;19.226;2024-03-08T04:37:14;99196.31;;;-6.15;100.00
58018;BME280;43810;50.860;19.226;2024-03-08T04:39:40;99205.44;;;-6.13;100.00
58018;BME280;43810;50.860;19.226;2024-03-08T04:42:06;99203.47;;;-6.17;100.00
58018;BME280;43810;50.860;19.226;2024-03-08T04:44:36;99205.66;;;-6.21;100.00
58018;BME280;43810;50.860;19.226;2024-03-08T04:47:03;99198.72;;;-6.20;100.00
58018;BME280;43810;50.860;19.226;2024-03-08T04:49:32;99202.09;;;-6.20;100.00
58018;BME280;43810;50.860;19.226;2024-03-08T04:52:03;99196.72;;;-6.18;100.00
58018;BME280;43810;50.860;19.226;2024-03-08T04:54:30;99199.72;;;-6.21;100.00
58018;BME280;43810;50.860;19.226;2024-03-08T04:56:55;99190.75;;;-6.25;100.00
58018;BME280;43810;50.860;19.226;2024-03-08T04:59:21;99194.34;;;-6.20;100.00
58018;BME280;43810;50.860;19.226;2024-03-08T05:01:47;99191.00;;;-5.89;100.00
58018;BME280;43810;50.860;19.226;2024-03-08T05:04:13;99189.75;;;-5.80;100.00
58018;BME280;43810;50.860;19.226;2024-03-08T05:06:39;99192.13;;;-5.78;100.00
58018;BME280;43810;50.860;19.226;2024-03-08T05:09:05;99196.09;;;-5.69;100.00
58018;BME280;43810;50.860;19.226;2024-03-08T05:11:42;99194.47;;;-5.64;100.00
58018;BME280;43810;50.860;19.226;2024-03-08T05:14:10;99193.31;;;-5.74;100.00
58018;BME280;43810;50.860;19.226;2024-03-08T05:16:35;99198.16;;;-5.84;100.00
58018;BME280;43810;50.860;19.226;2024-03-08T05:19:02;99196.72;;;-5.80;100.00
58018;BME280;43810;50.860;19.226;2024-03-08T05:21:27;99195.72;;;-5.73;100.00
58018;BME280;43810;50.860;19.226;2024-03-08T05:23:54;99205.78;;;-5.58;100.00
58018;BME280;43810;50.860;19.226;2024-03-08T05:26:20;99196.59;;;-5.54;100.00
58018;BME280;43810;50.860;19.226;2024-03-08T05:28:48;99205.91;;;-5.46;100.00
58018;BME280;43810;50.860;19.226;2024-03-08T05:31:23;99201.06;;;-5.36;100.00
58018;BME280;43810;50.860;19.226;2024-03-08T05:33:49;99211.34;;;-5.30;100.00
58018;BME280;43810;50.860;19.226;2024-03-08T05:36:15;99202.97;;;-5.25;100.00
58018;BME280;43810;50.860;19.226;2024-03-08T05:38:43;99203.97;;;-5.26;100.00
58018;BME280;43810;50.860;19.226;2024-03-08T05:41:09;99208.16;;;-5.25;100.00
58018;BME280;43810;50.860;19.226;2024-03-08T05:43:35;99203.78;;;-5.25;100.00
58018;BME280;43810;50.860;19.226;2024-03-08T05:46:01;99202.22;;;-5.07;100.00
58018;BME280;43810;50.860;19.226;2024-03-08T05:48:26;99201.69;;;-4.91;100.00
58018;BME280;43810;50.860;19.226;2024-03-08T05:50:53;99197.22;;;-4.84;100.00
58018;BME280;43810;50.860;19.226;2024-03-08T05:53:20;99200.31;;;-4.75;100.00
58018;BME280;43810;50.860;19.226;2024-03-08T05:55:46;99205.44;;;-4.69;100.00
58018;BME280;43810;50.860;19.226;2024-03-08T05:58:12;99200.19;;;-4.62;100.00
58018;BME280;43810;50.860;19.226;2024-03-08T06:00:37;99197.34;;;-4.54;100.00
58018;BME280;43810;50.860;19.226;2024-03-08T06:03:03;99205.47;;;-4.51;100.00
58018;BME280;43810;50.860;19.226;2024-03-08T06:05:29;99207.13;;;-4.38;100.00
58018;BME280;43810;50.860;19.226;2024-03-08T06:07:54;99195.13;;;-4.32;100.00
58018;BME280;43810;50.860;19.226;2024-03-08T06:10:27;99201.72;;;-4.18;100.00
58018;BME280;43810;50.860;19.226;2024-03-08T06:12:53;99209.34;;;-4.05;100.00
58018;BME280;43810;50.860;19.226;2024-03-08T06:15:20;99206.13;;;-4.00;100.00
58018;BME280;43810;50.860;19.226;2024-03-08T06:17:46;99195.22;;;-3.91;100.00
58018;BME280;43810;50.860;19.226;2024-03-08T06:20:13;99201.81;;;-3.77;100.00
58018;BME280;43810;50.860;19.226;2024-03-08T06:22:39;99211.44;;;-3.65;100.00
58018;BME280;43810;50.860;19.226;2024-03-08T06:25:09;99213.31;;;-3.54;100.00
58018;BME280;43810;50.860;19.226;2024-03-08T06:27:40;99206.78;;;-3.45;100.00
58018;BME280;43810;50.860;19.226;2024-03-08T06:30:08;99210.16;;;-3.45;100.00
58018;BME280;43810;50.860;19.226;2024-03-08T06:32:38;99203.31;;;-3.39;100.00
58018;BME280;43810;50.860;19.226;2024-03-08T06:35:07;99192.81;;;-3.32;100.00
58018;BME280;43810;50.860;19.226;2024-03-08T06:37:34;99206.03;;;-3.22;100.00
58018;BME280;43810;50.860;19.226;2024-03-08T06:40:00;99203.91;;;-3.14;100.00
58018;BME280;43810;50.860;19.226;2024-03-08T06:42:29;99205.41;;;-3.06;100.00
58018;BME280;43810;50.860;19.226;2024-03-08T06:44:59;99201.09;;;-3.01;100.00
58018;BME280;43810;50.860;19.226;2024-03-08T06:47:30;99205.63;;;-2.84;100.00
58018;BME280;43810;50.860;19.226;2024-03-08T06:49:56;99208.56;;;-2.69;100.00
58018;BME280;43810;50.860;19.226;2024-03-08T06:52:22;99211.41;;;-2.59;100.00
58018;BME280;43810;50.860;19.226;2024-03-08T06:54:48;99207.00;;;-2.58;100.00
58018;BME280;43810;50.860;19.226;2024-03-08T06:57:14;99202.00;;;-2.37;100.00
58018;BME280;43810;50.860;19.226;2024-03-08T06:59:39;99198.81;;;-2.27;100.00
58018;BME280;43810;50.860;19.226;2024-03-08T07:02:06;99204.88;;;-2.21;100.00
58018;BME280;43810;50.860;19.226;2024-03-08T07:04:34;99201.94;;;-2.13;100.00
58018;BME280;43810;50.860;19.226;2024-03-08T07:07:04;99206.75;;;-1.94;100.00
58018;BME280;43810;50.860;19.226;2024-03-08T07:09:30;99218.16;;;-1.83;100.00
58018;BME280;43810;50.860;19.226;2024-03-08T07:11:56;99214.25;;;-1.69;100.00
58018;BME280;43810;50.860;19.226;2024-03-08T07:14:24;99215.84;;;-1.68;100.00
58018;BME280;43810;50.860;19.226;2024-03-08T07:16:50;99221.63;;;-1.66;100.00
58018;BME280;43810;50.860;19.226;2024-03-08T07:19:16;99223.72;;;-1.63;100.00
58018;BME280;43810;50.860;19.226;2024-03-08T07:21:43;99208.28;;;-1.52;100.00
58018;BME280;43810;50.860;19.226;2024-03-08T07:24:10;99221.59;;;-1.37;100.00
58018;BME280;43810;50.860;19.226;2024-03-08T07:26:54;99221.06;;;-1.23;100.00
58018;BME280;43810;50.860;19.226;2024-03-08T07:29:21;99217.91;;;-1.08;100.00
58018;BME280;43810;50.860;19.226;2024-03-08T07:31:47;99221.63;;;-1.04;100.00
58018;BME280;43810;50.860;19.226;2024-03-08T07:34:21;99214.75;;;-1.10;100.00
58018;BME280;43810;50.860;19.226;2024-03-08T07:36:47;99209.78;;;-1.11;100.00
58018;BME280;43810;50.860;19.226;2024-03-08T07:39:13;99209.28;;;-0.92;100.00
58018;BME280;43810;50.860;19.226;2024-03-08T07:41:39;99213.84;;;-0.65;100.00
58018;BME280;43810;50.860;19.226;2024-03-08T07:44:07;99203.66;;;-0.50;100.00
58018;BME280;43810;50.860;19.226;2024-03-08T07:46:33;99208.97;;;-0.62;100.00
58018;BME280;43810;50.860;19.226;2024-03-08T07:48:59;99214.72;;;-0.60;100.00
58018;BME280;43810;50.860;19.226;2024-03-08T07:51:25;99204.06;;;-0.36;100.00
58018;BME280;43810;50.860;19.226;2024-03-08T07:53:51;99203.00;;;-0.19;100.00
58018;BME280;43810;50.860;19.226;2024-03-08T07:56:17;99204.69;;;-0.07;100.00
58018;BME280;43810;50.860;19.226;2024-03-08T07:58:44;99209.81;;;0.04;100.00
58018;BME280;43810;50.860;19.226;2024-03-08T08:01:19;99198.22;;;0.22;100.00
58018;BME280;43810;50.860;19.226;2024-03-08T08:03:45;99205.66;;;0.30;100.00
58018;BME280;43810;50.860;19.226;2024-03-08T08:06:11;99209.81;;;0.53;100.00
58018;BME280;43810;50.860;19.226;2024-03-08T08:08:41;99201.00;;;0.64;100.00
58018;BME280;43810;50.860;19.226;2024-03-08T08:11:08;99204.34;;;0.86;100.00
58018;BME280;43810;50.860;19.226;2024-03-08T08:13:35;99193.63;;;0.88;100.00
58018;BME280;43810;50.860;19.226;2024-03-08T08:16:02;99197.69;;;1.06;100.00
58018;BME280;43810;50.860;19.226;2024-03-08T08:18:29;99196.41;;;1.13;100.00
58018;BME280;43810;50.860;19.226;2024-03-08T08:20:55;99196.81;;;1.32;100.00
58018;BME280;43810;50.860;19.226;2024-03-08T08:23:21;99194.66;;;1.24;100.00
58018;BME280;43810;50.860;19.226;2024-03-08T08:25:47;99203.03;;;1.26;100.00
58018;BME280;43810;50.860;19.226;2024-03-08T08:28:18;99192.97;;;1.50;100.00
58018;BME280;43810;50.860;19.226;2024-03-08T08:30:44;99200.97;;;1.75;100.00
58018;BME280;43810;50.860;19.226;2024-03-08T08:33:10;99197.84;;;1.78;100.00
58018;BME280;43810;50.860;19.226;2024-03-08T08:35:39;99188.50;;;1.97;100.00
58018;BME280;43810;50.860;19.226;2024-03-08T08:38:05;99200.41;;;1.63;100.00
58018;BME280;43810;50.860;19.226;2024-03-08T08:40:30;99192.78;;;1.56;100.00
58018;BME280;43810;50.860;19.226;2024-03-08T08:42:58;99188.97;;;1.79;100.00
58018;BME280;43810;50.860;19.226;2024-03-08T08:45:24;99197.47;;;1.54;100.00
58018;BME280;43810;50.860;19.226;2024-03-08T08:47:49;99188.97;;;1.79;100.00
58018;BME280;43810;50.860;19.226;2024-03-08T08:50:15;99186.16;;;2.01;100.00
58018;BME280;43810;50.860;19.226;2024-03-08T08:52:42;99183.09;;;2.34;100.00
58018;BME280;43810;50.860;19.226;2024-03-08T08:55:09;99180.78;;;2.63;100.00
58018;BME280;43810;50.860;19.226;2024-03-08T08:57:40;99180.25;;;2.46;100.00
58018;BME280;43810;50.860;19.226;2024-03-08T09:00:06;99168.69;;;2.62;100.00
58018;BME280;43810;50.860;19.226;2024-03-08T09:02:33;99172.91;;;2.48;100.00
58018;BME280;43810;50.860;19.226;2024-03-08T09:05:00;99172.91;;;2.58;100.00
58018;BME280;43810;50.860;19.226;2024-03-08T09:07:26;99178.91;;;2.43;100.00
58018;BME280;43810;50.860;19.226;2024-03-08T09:09:53;99180.25;;;2.66;100.00
58018;BME280;43810;50.860;19.226;2024-03-08T09:12:23;99174.47;;;2.49;100.00
58018;BME280;43810;50.860;19.226;2024-03-08T09:14:49;99171.06;;;2.89;100.00
58018;BME280;43810;50.860;19.226;2024-03-08T09:17:15;99176.28;;;3.35;100.00
58018;BME280;43810;50.860;19.226;2024-03-08T09:19:43;99173.34;;;3.51;100.00
58018;BME280;43810;50.860;19.226;2024-03-08T09:22:08;99165.25;;;3.33;100.00
58018;BME280;43810;50.860;19.226;2024-03-08T09:24:34;99171.31;;;2.98;100.00
58018;BME280;43810;50.860;19.226;2024-03-08T09:27:00;99164.50;;;2.56;100.00
58018;BME280;43810;50.860;19.226;2024-03-08T09:29:26;99164.50;;;2.76;100.00
58018;BME280;43810;50.860;19.226;2024-03-08T09:31:51;99161.09;;;3.01;100.00
58018;BME280;43810;50.860;19.226;2024-03-08T09:34:17;99165.56;;;3.01;100.00
58018;BME280;43810;50.860;19.226;2024-03-08T09:36:44;99161.63;;;2.93;100.00
58018;BME280;43810;50.860;19.226;2024-03-08T09:39:10;99157.19;;;2.94;100.00
58018;BME280;43810;50.860;19.226;2024-03-08T09:41:42;99158.19;;;3.13;100.00
58018;BME280;43810;50.860;19.226;2024-03-08T09:44:09;99151.91;;;3.19;100.00
58018;BME280;43810;50.860;19.226;2024-03-08T09:46:34;99154.19;;;3.46;100.00
58018;BME280;43810;50.860;19.226;2024-03-08T09:49:01;99153.06;;;3.67;100.00
58018;BME280;43810;50.860;19.226;2024-03-08T09:51:28;99149.19;;;3.44;100.00
58018;BME280;43810;50.860;19.226;2024-03-08T09:53:54;99150.50;;;3.47;100.00
58018;BME280;43810;50.860;19.226;2024-03-08T09:56:22;99140.03;;;3.42;100.00
58018;BME280;43810;50.860;19.226;2024-03-08T09:58:49;99140.97;;;3.66;100.00
58018;BME280;43810;50.860;19.226;2024-03-08T10:01:33;99143.81;;;3.80;100.00
58018;BME280;43810;50.860;19.226;2024-03-08T10:03:59;99142.91;;;4.05;100.00
58018;BME280;43810;50.860;19.226;2024-03-08T10:06:24;99135.72;;;4.20;100.00
58018;BME280;43810;50.860;19.226;2024-03-08T10:08:51;99139.63;;;4.28;100.00
58018;BME280;43810;50.860;19.226;2024-03-08T10:11:20;99132.97;;;4.75;100.00
58018;BME280;43810;50.860;19.226;2024-03-08T10:13:48;99131.00;;;4.90;100.00
58018;BME280;43810;50.860;19.226;2024-03-08T10:16:13;99123.13;;;4.85;100.00
58018;BME280;43810;50.860;19.226;2024-03-08T10:18:39;99130.28;;;5.09;100.00
58018;BME280;43810;50.860;19.226;2024-03-08T10:21:08;99129.72;;;4.83;100.00
58018;BME280;43810;50.860;19.226;2024-03-08T10:23:36;99125.19;;;4.59;100.00
58018;BME280;43810;50.860;19.226;2024-03-08T10:26:12;99124.44;;;4.54;100.00
58018;BME280;43810;50.860;19.226;2024-03-08T10:28:42;99124.47;;;4.83;100.00
58018;BME280;43810;50.860;19.226;2024-03-08T10:31:09;99128.75;;;4.74;100.00
58018;BME280;43810;50.860;19.226;2024-03-08T10:33:35;99128.38;;;4.56;100.00
58018;BME280;43810;50.860;19.226;2024-03-08T10:36:01;99120.75;;;4.55;100.00
58018;BME280;43810;50.860;19.226;2024-03-08T10:38:28;99119.47;;;4.52;100.00
58018;BME280;43810;50.860;19.226;2024-03-08T10:40:58;99112.44;;;4.43;100.00
58018;BME280;43810;50.860;19.226;2024-03-08T10:43:24;99113.09;;;4.58;100.00
58018;BME280;43810;50.860;19.226;2024-03-08T10:46:01;99119.63;;;4.95;100.00
58018;BME280;43810;50.860;19.226;2024-03-08T10:48:31;99129.19;;;5.15;100.00
58018;BME280;43810;50.860;19.226;2024-03-08T10:51:02;99122.81;;;5.45;100.00
58018;BME280;43810;50.860;19.226;2024-03-08T10:53:29;99119.53;;;5.77;100.00
58018;BME280;43810;50.860;19.226;2024-03-08T10:55:57;99116.19;;;5.23;100.00
58018;BME280;43810;50.860;19.226;2024-03-08T10:58:25;99117.78;;;4.95;100.00
58018;BME280;43810;50.860;19.226;2024-03-08T11:00:57;99113.38;;;5.15;100.00
58018;BME280;43810;50.860;19.226;2024-03-08T11:03:52;99107.38;;;5.09;100.00
58018;BME280;43810;50.860;19.226;2024-03-08T11:08:49;99099.50;;;5.76;100.00
58018;BME280;43810;50.860;19.226;2024-03-08T11:11:28;99105.31;;;5.54;100.00
58018;BME280;43810;50.860;19.226;2024-03-08T11:13:58;99093.88;;;5.82;100.00
58018;BME280;43810;50.860;19.226;2024-03-08T11:18:53;99091.81;;;5.36;77.42
58018;BME280;43810;50.860;19.226;2024-03-08T11:21:19;99090.00;;;5.74;82.24
58018;BME280;43810;50.860;19.226;2024-03-08T11:24:07;99085.69;;;6.02;78.43
58018;BME280;43810;50.860;19.226;2024-03-08T11:26:33;99074.84;;;6.23;76.98
58018;BME280;43810;50.860;19.226;2024-03-08T11:34:41;99082.88;;;6.31;71.98
58018;BME280;43810;50.860;19.226;2024-03-08T11:37:19;99076.91;;;6.26;71.19
58018;BME280;43810;50.860;19.226;2024-03-08T11:39:55;99071.06;;;6.10;73.61
58018;BME280;43810;50.860;19.226;2024-03-08T11:42:30;99068.03;;;5.84;74.22
58018;BME280;43810;50.860;19.226;2024-03-08T11:44:56;99068.63;;;6.32;70.51
58018;BME280;43810;50.860;19.226;2024-03-08T11:47:23;99052.25;;;5.98;71.60
58018;BME280;43810;50.860;19.226;2024-03-08T11:49:49;99051.13;;;6.04;72.09
58018;BME280;43810;50.860;19.226;2024-03-08T11:52:16;99056.19;;;6.00;72.08
58018;BME280;43810;50.860;19.226;2024-03-08T11:54:48;99055.97;;;5.78;72.11
58018;BME280;43810;50.860;19.226;2024-03-08T11:57:21;99054.53;;;6.04;74.77
58018;BME280;43810;50.860;19.226;2024-03-08T11:59:54;99049.41;;;6.13;70.00
58018;BME280;43810;50.860;19.226;2024-03-08T12:02:24;99050.31;;;6.22;70.32
58018;BME280;43810;50.860;19.226;2024-03-08T12:04:57;99033.16;;;5.68;68.22
58018;BME280;43810;50.860;19.226;2024-03-08T12:07:25;99033.88;;;5.55;67.46
58018;BME280;43810;50.860;19.226;2024-03-08T12:10:23;99040.88;;;5.84;72.71
58018;BME280;43810;50.860;19.226;2024-03-08T12:12:54;99033.25;;;5.82;68.33
58018;BME280;43810;50.860;19.226;2024-03-08T12:15:22;99030.09;;;5.80;69.07
58018;BME280;43810;50.860;19.226;2024-03-08T12:17:49;99025.84;;;5.84;68.94
58018;BME280;43810;50.860;19.226;2024-03-08T12:20:25;99037.84;;;6.28;68.11
58018;BME280;43810;50.860;19.226;2024-03-08T12:22:55;99029.28;;;6.50;70.13
58018;BME280;43810;50.860;19.226;2024-03-08T12:25:30;99021.28;;;6.22;64.83
58018;BME280;43810;50.860;19.226;2024-03-08T12:28:10;99021.94;;;6.46;64.20
58018;BME280;43810;50.860;19.226;2024-03-08T12:30:45;99027.88;;;6.71;66.37
58018;BME280;43810;50.860;19.226;2024-03-08T12:33:12;99027.75;;;6.62;63.38
58018;BME280;43810;50.860;19.226;2024-03-08T12:35:38;99018.63;;;6.55;64.57
58018;BME280;43810;50.860;19.226;2024-03-08T12:38:04;99015.13;;;6.59;61.93
58018;BME280;43810;50.860;19.226;2024-03-08T12:40:32;99019.66;;;6.86;61.99
58018;BME280;43810;50.860;19.226;2024-03-08T12:43:00;99018.63;;;7.14;61.73
58018;BME280;43810;50.860;19.226;2024-03-08T12:45:27;99013.53;;;7.04;63.55
58018;BME280;43810;50.860;19.226;2024-03-08T12:47:56;99009.03;;;7.18;61.32
58018;BME280;43810;50.860;19.226;2024-03-08T12:50:22;99002.28;;;7.12;59.80
58018;BME280;43810;50.860;19.226;2024-03-08T12:52:49;98996.59;;;6.92;59.12
58018;BME280;43810;50.860;19.226;2024-03-08T12:55:15;98998.38;;;6.96;58.88
58018;BME280;43810;50.860;19.226;2024-03-08T12:57:43;99002.69;;;7.06;60.06